createdAt,value
2023-04-07T00:03:31.625Z,10.07
2023-04-07T00:09:33.198Z,9.87
2023-04-07T00:15:34.681Z,10.23
2023-04-07T00:21:36.093Z,10.07
2023-04-07T00:27:38.137Z,9.83
2023-04-07T00:33:39.550Z,9.88
2023-04-07T00:39:41.031Z,9.53
2023-04-07T00:45:42.920Z,9.13
2023-04-07T00:51:45.848Z,9.65
2023-04-07T00:57:47.381Z,9.40
2023-04-07T01:03:58.277Z,9.43
2023-04-07T01:10:06.565Z,9.03
2023-04-07T01:16:24.065Z,8.70
2023-04-07T01:22:31.609Z,9.18
2023-04-07T01:28:52.218Z,8.70
2023-04-07T01:34:55.394Z,8.77
2023-04-07T01:40:56.953Z,9.33
2023-04-07T01:46:59.568Z,9.60
2023-04-07T01:53:01.688Z,9.52
2023-04-07T01:59:03.138Z,8.47
2023-04-07T02:05:07.209Z,8.82
2023-04-07T02:11:12.887Z,9.03
2023-04-07T02:17:16.339Z,9.18
2023-04-07T02:23:17.955Z,8.73
2023-04-07T02:29:19.491Z,8.40
2023-04-07T02:35:21.191Z,8.70
2023-04-07T02:41:22.872Z,8.07
2023-04-07T02:47:25.210Z,8.43
2023-04-07T02:53:26.638Z,8.43
2023-04-07T02:59:28.150Z,8.50
2023-04-07T03:05:29.697Z,7.90
2023-04-07T03:11:31.277Z,7.87
2023-04-07T03:17:34.827Z,7.95
2023-04-07T03:23:36.568Z,7.28
2023-04-07T03:29:38.110Z,7.60
2023-04-07T03:35:42.637Z,7.93
2023-04-07T03:41:45.929Z,7.70
2023-04-07T03:47:48.266Z,7.78
2023-04-07T03:53:51.562Z,7.72
2023-04-07T04:00:10.393Z,7.50
2023-04-07T04:06:20.409Z,7.45
2023-04-07T04:12:22.646Z,6.93
2023-04-07T04:18:39.270Z,6.47
2023-04-07T04:24:42.319Z,6.68
2023-04-07T04:30:44.206Z,6.73
2023-04-07T04:36:45.802Z,6.82
2023-04-07T04:42:47.512Z,6.57
2023-04-07T04:48:51.674Z,6.43
2023-04-07T04:54:54.782Z,6.57
2023-04-07T05:00:58.259Z,7.10
2023-04-07T05:07:05.379Z,6.80
2023-04-07T05:13:07.484Z,6.97
2023-04-07T05:19:11.281Z,6.47
2023-04-07T05:25:12.816Z,6.38
2023-04-07T05:31:16.953Z,7.27
2023-04-07T05:37:20.421Z,7.57
2023-04-07T05:43:23.470Z,7.37
2023-04-07T05:49:25.014Z,7.20
2023-04-07T05:55:35.868Z,7.53
2023-04-07T06:01:39.011Z,7.53
2023-04-07T06:07:41.054Z,7.95
2023-04-07T06:13:43.620Z,7.73
2023-04-07T06:19:45.327Z,7.38
2023-04-07T06:25:47.913Z,8.27
2023-04-07T06:31:49.348Z,8.57
2023-04-07T06:37:50.852Z,8.45
2023-04-07T06:43:52.562Z,8.47
2023-04-07T06:49:53.968Z,8.70
2023-04-07T06:56:05.429Z,8.63
2023-04-07T07:02:07.861Z,8.63
2023-04-07T07:08:09.376Z,8.98
2023-04-07T07:14:11.193Z,8.47
2023-04-07T07:20:12.691Z,8.68
2023-04-07T07:26:15.446Z,9.05
2023-04-07T07:32:16.933Z,9.13
2023-04-07T07:38:18.476Z,9.38
2023-04-07T07:44:20.340Z,8.77
2023-04-07T07:50:22.645Z,8.23
2023-04-07T07:56:24.207Z,8.20
2023-04-07T08:02:30.843Z,7.90
2023-04-07T08:08:32.475Z,7.93
2023-04-07T08:14:34.032Z,8.27
2023-04-07T08:20:36.131Z,7.35
2023-04-07T08:26:37.827Z,6.97
2023-04-07T08:32:41.431Z,6.97
2023-04-07T08:38:43.004Z,7.13
2023-04-07T08:44:45.246Z,6.87
2023-04-07T08:50:49.093Z,7.25
2023-04-07T08:56:50.751Z,7.18
2023-04-07T09:02:52.461Z,7.27
2023-04-07T09:08:55.295Z,6.80
2023-04-07T09:14:58.156Z,6.70
2023-04-07T09:21:01.416Z,6.68
2023-04-07T09:27:14.598Z,6.65
2023-04-07T09:33:26.537Z,5.57
2023-04-07T09:39:28.054Z,6.13
2023-04-07T09:45:35.137Z,6.57
2023-04-07T09:51:38.157Z,7.43
2023-04-07T09:57:39.846Z,7.32
2023-04-07T10:03:41.511Z,8.00
2023-04-07T10:09:42.988Z,7.70
2023-04-07T10:15:44.458Z,7.97
2023-04-07T10:21:46.808Z,7.95
2023-04-07T10:27:54.705Z,7.53
2023-04-07T10:33:57.010Z,8.17
2023-04-07T10:40:17.486Z,7.70
2023-04-07T10:46:18.937Z,7.43
2023-04-07T10:52:24.037Z,6.95
2023-04-07T10:58:25.569Z,7.07
2023-04-07T11:04:36.352Z,6.40
2023-04-07T11:10:38.382Z,6.80
2023-04-07T11:16:41.635Z,6.60
2023-04-07T11:22:43.099Z,7.05
2023-04-07T11:28:46.347Z,7.13
2023-04-07T11:34:47.790Z,7.17
2023-04-07T11:40:49.357Z,7.10
2023-04-07T11:46:54.980Z,6.93
2023-04-07T11:52:56.513Z,6.80
2023-04-07T11:58:58.104Z,6.45
2023-04-07T12:04:59.601Z,6.07
2023-04-07T12:11:05.128Z,6.28
2023-04-07T12:17:08.059Z,6.30
2023-04-07T12:23:09.480Z,6.18
2023-04-07T12:29:10.927Z,6.28
2023-04-07T12:35:12.400Z,6.63
2023-04-07T12:41:13.820Z,6.13
2023-04-07T12:47:15.845Z,6.40
2023-04-07T12:53:17.305Z,6.70
2023-04-07T12:59:18.746Z,6.90
2023-04-07T13:05:20.205Z,7.00
2023-04-07T13:11:21.953Z,7.20
2023-04-07T13:17:23.438Z,6.50
2023-04-07T13:23:26.382Z,6.70
2023-04-07T13:29:27.929Z,7.30
2023-04-07T13:35:30.985Z,6.67
2023-04-07T13:41:32.638Z,7.00
2023-04-07T13:47:34.626Z,6.60
2023-04-07T13:53:36.286Z,6.40
2023-04-07T13:59:37.737Z,6.30
2023-04-07T14:05:39.211Z,6.10
2023-04-07T14:11:40.753Z,5.78
2023-04-07T14:17:42.214Z,5.47
2023-04-07T14:23:44.000Z,5.57
2023-04-07T14:29:45.385Z,5.63
2023-04-07T14:35:46.939Z,5.60
2023-04-07T14:41:48.770Z,5.90
2023-04-07T14:47:50.602Z,5.90
2023-04-07T14:53:55.650Z,5.85
2023-04-07T14:59:57.158Z,5.50
2023-04-07T15:05:59.281Z,5.03
2023-04-07T15:12:00.981Z,5.20
2023-04-07T15:18:04.011Z,4.80
2023-04-07T15:24:05.746Z,4.63
2023-04-07T15:30:07.577Z,4.65
2023-04-07T15:36:09.207Z,4.20
2023-04-07T15:42:12.477Z,4.18
2023-04-07T15:48:13.997Z,4.50
2023-04-07T15:54:15.433Z,4.40
2023-04-07T16:00:17.968Z,4.60
2023-04-07T16:06:19.597Z,4.50
2023-04-07T16:12:22.304Z,4.68
2023-04-07T16:18:23.910Z,4.33
2023-04-07T16:24:25.489Z,4.60
2023-04-07T16:30:26.897Z,4.90
2023-04-07T16:36:28.889Z,4.67
2023-04-07T16:42:30.724Z,4.88
2023-04-07T16:48:32.163Z,4.60
2023-04-07T16:54:36.488Z,4.57
2023-04-07T17:00:37.901Z,4.90
2023-04-07T17:06:39.337Z,4.83
2023-04-07T17:12:40.747Z,4.20
2023-04-07T17:18:42.414Z,4.50
2023-04-07T17:24:43.818Z,4.28
2023-04-07T17:30:45.328Z,4.43
2023-04-07T17:36:46.753Z,4.10
2023-04-07T17:42:48.494Z,4.10
2023-04-07T17:48:50.743Z,4.33
2023-04-07T17:54:52.747Z,3.88
2023-04-07T18:00:54.757Z,3.70
2023-04-07T18:06:56.176Z,3.87
2023-04-07T18:12:57.642Z,3.85
2023-04-07T18:19:00.456Z,3.90
2023-04-07T18:25:01.966Z,3.30
2023-04-07T18:31:05.561Z,3.53
2023-04-07T18:37:07.020Z,3.50
2023-04-07T18:43:08.415Z,3.85
2023-04-07T18:49:10.297Z,3.37
2023-04-07T18:55:11.745Z,3.00
2023-04-07T19:01:13.644Z,3.45
2023-04-07T19:07:15.429Z,3.10
2023-04-07T19:13:18.335Z,3.30
2023-04-07T19:19:20.241Z,3.67
2023-04-07T19:25:21.737Z,4.05
2023-04-07T19:31:24.224Z,5.00
2023-04-07T19:37:25.706Z,5.40
2023-04-07T19:43:27.145Z,6.78
2023-04-07T19:49:28.583Z,6.93
2023-04-07T19:55:30.510Z,7.28
2023-04-07T20:01:32.639Z,6.07
2023-04-07T20:07:34.216Z,5.47
2023-04-07T20:13:35.646Z,4.80
2023-04-07T20:19:37.466Z,5.13
2023-04-07T20:25:38.884Z,5.00
2023-04-07T20:31:41.240Z,3.58
2023-04-07T20:37:43.729Z,3.40
2023-04-07T20:43:45.527Z,3.35
2023-04-07T20:49:47.026Z,3.40
2023-04-07T20:55:48.473Z,3.58
2023-04-07T21:01:50.461Z,3.53
2023-04-07T21:07:52.450Z,4.00
2023-04-07T21:13:53.857Z,4.22
2023-04-07T21:19:55.409Z,4.33
2023-04-07T21:25:59.589Z,4.47
2023-04-07T21:32:01.661Z,4.10
2023-04-07T21:38:03.086Z,4.30
2023-04-07T21:44:07.899Z,4.40
2023-04-07T21:50:09.631Z,4.57
2023-04-07T21:56:13.025Z,4.18
2023-04-07T22:02:14.701Z,4.43
2023-04-07T22:08:16.971Z,3.50
2023-04-07T22:14:24.613Z,3.25
2023-04-07T22:20:27.062Z,2.90
2023-04-07T22:26:28.713Z,2.58
2023-04-07T22:32:30.247Z,3.20
2023-04-07T22:38:31.673Z,2.80
2023-04-07T22:44:33.109Z,3.20
2023-04-07T22:50:34.618Z,3.40
2023-04-07T22:56:36.071Z,3.00
2023-04-07T23:02:37.871Z,3.28
2023-04-07T23:08:39.407Z,2.90
2023-04-07T23:14:40.930Z,3.20
2023-04-07T23:20:48.777Z,3.30
2023-04-07T23:26:50.323Z,2.90
2023-04-07T23:32:52.052Z,2.67
2023-04-07T23:38:54.550Z,3.00
2023-04-07T23:44:55.921Z,3.47
2023-04-07T23:50:59.648Z,3.57
2023-04-07T23:57:01.659Z,3.50
